Averill, Minnesota
Current Conditions -  °F | °C
As of 8:34 PM on Friday 31 Oct 2014 (Local Time) from KJKJ Reporting Station
Clear Clear  
Wind Chill: 23°   Ceiling: Unl
Heat Index: 32°   Visibility: 10mi
Dew Point: 21°   Wind: 12mph
Humidity: 64%   Direction: 150°SSE
Pressure: 30.4"   Gusts: NA
Location:  46.8905°N, 96.5417°W
Report Text: KJKJ 010134Z AUTO 15010KT 10SM CLR 00/M06 A3040 RMK AO2
Loading
Personal Weather Stations






























Interactive Weather Map
Tropical Storm Tracking
New forecast layout! Learn more

10-Day Weather Forecast

Advertisements
Track Severe Weather on mobile